Main page
METAR-TAF:

METAR-TAF

Airports :

Sumburgh, Shetland, Scotland

Sumburgh Airport

latitude: 59-53N, longitude: 001-18W, elevation: 5 m

Current weather observation

The report was made 25 minutes ago, at 18:20 UTC
Wind 8 kt from the West
Temperature 8°C
Humidity 93%
Pressure 1027 hPa
Visibility: 8000 m
Broken clouds at a height of 300 ft
Broken clouds at a height of 500 ft

METAR: EGPB 261820Z 26008KT 8000 BKN003 BKN005 08/07 Q1027

Time: 19:45 (18:45 UTC)

Forecast

The report was made 1 hour and 42 minutes ago, at 17:03 UTC
Forecast valid from 26 at 18 UTC to 27 at 03 UTC
Wind 8 kt from the West/Southwest
Visibility 10 km or more
Scattered clouds at a height of 400 ft
Broken clouds at a height of 800 ft
Temporary
from 26 at 18 UTC to 27 at 01 UTC
Visibility: 3000 m
Broken clouds at a height of 300 ft
mist
Probability 30% :
Temporary
from 27 at 01 UTC to 27 at 03 UTC
Scattered clouds at a height of 900 ft

TAF: EGPB 261703Z 2618/2703 24008KT 9999 SCT004 BKN008 TEMPO 2618/2701 3000 BR BKN003 PROB30 TEMPO 2701/2703 SCT009

Weather observations and forecasts of more than 4000 airports (METAR and TAF reports).

The available stations are represented by yellow and red dots on the map.

Hover mouse over dot to see the name of the station.

Then click to see weather observations and forecasts.

To change the map : click on the green buttons with a black cross to zoom in, on the green button with a dash to zoom out, or on the green arrows for adjacent maps.


METAR-TAF: